sensor_id;sensor_type;location;lat;lon;timestamp;temperature;humidity
63802;DHT22;49949;43.060;25.624;2022-12-11T00:00:50;17.10;99.90
63802;DHT22;49949;43.060;25.624;2022-12-11T00:03:16;17.10;99.90
63802;DHT22;49949;43.060;25.624;2022-12-11T00:05:43;17.10;99.90
63802;DHT22;49949;43.060;25.624;2022-12-11T00:08:09;17.20;99.90
63802;DHT22;49949;43.060;25.624;2022-12-11T00:10:35;17.20;99.90
63802;DHT22;49949;43.060;25.624;2022-12-11T00:13:02;17.30;99.90
63802;DHT22;49949;43.060;25.624;2022-12-11T00:15:28;17.30;99.90
63802;DHT22;49949;43.060;25.624;2022-12-11T00:17:54;17.30;99.90
63802;DHT22;49949;43.060;25.624;2022-12-11T00:20:20;17.30;99.90
63802;DHT22;49949;43.060;25.624;2022-12-11T00:22:45;17.20;99.90
63802;DHT22;49949;43.060;25.624;2022-12-11T00:25:11;17.20;99.90
63802;DHT22;49949;43.060;25.624;2022-12-11T00:27:37;17.20;99.90
63802;DHT22;49949;43.060;25.624;2022-12-11T00:30:04;17.20;99.90
63802;DHT22;49949;43.060;25.624;2022-12-11T00:32:30;17.20;99.90
63802;DHT22;49949;43.060;25.624;2022-12-11T00:34:56;17.30;99.90
63802;DHT22;49949;43.060;25.624;2022-12-11T00:37:22;17.40;99.90
63802;DHT22;49949;43.060;25.624;2022-12-11T00:39:48;17.40;99.90
63802;DHT22;49949;43.060;25.624;2022-12-11T00:42:13;17.30;99.90
63802;DHT22;49949;43.060;25.624;2022-12-11T00:44:39;17.20;99.90
63802;DHT22;49949;43.060;25.624;2022-12-11T00:47:05;17.30;99.90
63802;DHT22;49949;43.060;25.624;2022-12-11T00:49:31;17.30;99.90
63802;DHT22;49949;43.060;25.624;2022-12-11T00:51:57;17.30;99.90
63802;DHT22;49949;43.060;25.624;2022-12-11T00:54:22;17.30;99.90
63802;DHT22;49949;43.060;25.624;2022-12-11T00:56:48;17.20;99.90
63802;DHT22;49949;43.060;25.624;2022-12-11T00:59:15;17.30;99.90
63802;DHT22;49949;43.060;25.624;2022-12-11T01:01:41;17.30;99.90
63802;DHT22;49949;43.060;25.624;2022-12-11T01:04:06;17.40;99.90
63802;DHT22;49949;43.060;25.624;2022-12-11T01:06:32;17.30;99.90
63802;DHT22;49949;43.060;25.624;2022-12-11T01:08:58;17.40;99.90
63802;DHT22;49949;43.060;25.624;2022-12-11T01:11:43;17.50;99.90
63802;DHT22;49949;43.060;25.624;2022-12-11T01:14:09;17.50;99.90
63802;DHT22;49949;43.060;25.624;2022-12-11T01:16:35;17.50;99.90
63802;DHT22;49949;43.060;25.624;2022-12-11T01:19:01;17.60;99.90
63802;DHT22;49949;43.060;25.624;2022-12-11T01:21:28;17.60;99.90
63802;DHT22;49949;43.060;25.624;2022-12-11T01:23:54;17.60;99.90
63802;DHT22;49949;43.060;25.624;2022-12-11T01:26:19;17.60;99.90
63802;DHT22;49949;43.060;25.624;2022-12-11T01:28:48;17.70;99.90
63802;DHT22;49949;43.060;25.624;2022-12-11T01:31:15;17.70;99.90
63802;DHT22;49949;43.060;25.624;2022-12-11T01:33:42;17.70;99.90
63802;DHT22;49949;43.060;25.624;2022-12-11T01:36:09;17.70;99.90
63802;DHT22;49949;43.060;25.624;2022-12-11T01:38:35;17.70;99.90
63802;DHT22;49949;43.060;25.624;2022-12-11T01:41:01;17.70;99.90
63802;DHT22;49949;43.060;25.624;2022-12-11T01:43:27;17.70;99.90
63802;DHT22;49949;43.060;25.624;2022-12-11T01:45:53;17.70;99.90
63802;DHT22;49949;43.060;25.624;2022-12-11T01:48:22;17.70;99.90
63802;DHT22;49949;43.060;25.624;2022-12-11T01:50:52;17.70;99.90
63802;DHT22;49949;43.060;25.624;2022-12-11T01:53:22;17.70;99.90
63802;DHT22;49949;43.060;25.624;2022-12-11T01:55:52;17.70;99.90
63802;DHT22;49949;43.060;25.624;2022-12-11T01:58:20;17.70;99.90
63802;DHT22;49949;43.060;25.624;2022-12-11T02:00:47;17.80;99.90
63802;DHT22;49949;43.060;25.624;2022-12-11T02:03:12;17.80;99.90
63802;DHT22;49949;43.060;25.624;2022-12-11T02:05:38;17.80;99.90
63802;DHT22;49949;43.060;25.624;2022-12-11T02:08:07;18.00;99.90
63802;DHT22;49949;43.060;25.624;2022-12-11T02:13:22;18.00;99.90
63802;DHT22;49949;43.060;25.624;2022-12-11T02:16:03;18.20;99.90
63802;DHT22;49949;43.060;25.624;2022-12-11T02:18:50;18.10;99.90
63802;DHT22;49949;43.060;25.624;2022-12-11T02:21:24;18.20;99.90
63802;DHT22;49949;43.060;25.624;2022-12-11T02:29:22;18.20;99.90
63802;DHT22;49949;43.060;25.624;2022-12-11T02:32:20;18.30;99.90
63802;DHT22;49949;43.060;25.624;2022-12-11T02:34:55;18.20;99.90
63802;DHT22;49949;43.060;25.624;2022-12-11T02:37:25;18.10;99.90
63802;DHT22;49949;43.060;25.624;2022-12-11T02:39:53;18.10;99.90
63802;DHT22;49949;43.060;25.624;2022-12-11T02:42:20;18.20;99.90
63802;DHT22;49949;43.060;25.624;2022-12-11T02:44:48;18.20;99.90
63802;DHT22;49949;43.060;25.624;2022-12-11T02:47:16;18.20;99.90
63802;DHT22;49949;43.060;25.624;2022-12-11T02:49:45;18.20;99.90
63802;DHT22;49949;43.060;25.624;2022-12-11T02:52:13;18.20;99.90
63802;DHT22;49949;43.060;25.624;2022-12-11T02:54:40;18.30;99.90
63802;DHT22;49949;43.060;25.624;2022-12-11T02:57:15;18.30;99.90
63802;DHT22;49949;43.060;25.624;2022-12-11T02:59:43;18.30;99.90
63802;DHT22;49949;43.060;25.624;2022-12-11T03:02:11;18.30;99.90
63802;DHT22;49949;43.060;25.624;2022-12-11T03:04:37;18.20;99.90
63802;DHT22;49949;43.060;25.624;2022-12-11T03:07:09;18.30;99.90
63802;DHT22;49949;43.060;25.624;2022-12-11T03:09:45;18.30;99.90
63802;DHT22;49949;43.060;25.624;2022-12-11T03:12:14;18.30;99.90
63802;DHT22;49949;43.060;25.624;2022-12-11T03:14:41;18.30;99.90
63802;DHT22;49949;43.060;25.624;2022-12-11T03:17:22;18.40;99.90
63802;DHT22;49949;43.060;25.624;2022-12-11T03:22:56;18.40;99.90
63802;DHT22;49949;43.060;25.624;2022-12-11T03:25:29;18.40;99.90
63802;DHT22;49949;43.060;25.624;2022-12-11T03:28:14;18.30;99.90
63802;DHT22;49949;43.060;25.624;2022-12-11T03:30:41;18.30;99.90
63802;DHT22;49949;43.060;25.624;2022-12-11T03:33:38;18.30;99.90
63802;DHT22;49949;43.060;25.624;2022-12-11T03:36:10;18.50;99.90
63802;DHT22;49949;43.060;25.624;2022-12-11T03:41:09;18.60;99.90
63802;DHT22;49949;43.060;25.624;2022-12-11T03:43:36;18.60;99.90
63802;DHT22;49949;43.060;25.624;2022-12-11T03:46:03;18.40;99.90
63802;DHT22;49949;43.060;25.624;2022-12-11T03:48:32;18.50;99.90
63802;DHT22;49949;43.060;25.624;2022-12-11T03:51:00;18.50;99.90
63802;DHT22;49949;43.060;25.624;2022-12-11T03:53:27;18.50;99.90
63802;DHT22;49949;43.060;25.624;2022-12-11T03:55:53;18.60;99.90
63802;DHT22;49949;43.060;25.624;2022-12-11T03:58:22;18.60;99.90
63802;DHT22;49949;43.060;25.624;2022-12-11T04:00:48;18.70;99.90
63802;DHT22;49949;43.060;25.624;2022-12-11T04:03:14;18.70;99.90
63802;DHT22;49949;43.060;25.624;2022-12-11T04:05:49;18.60;99.90
63802;DHT22;49949;43.060;25.624;2022-12-11T04:08:16;18.60;99.90
63802;DHT22;49949;43.060;25.624;2022-12-11T04:10:43;18.50;99.90
63802;DHT22;49949;43.060;25.624;2022-12-11T04:13:09;18.60;99.90
63802;DHT22;49949;43.060;25.624;2022-12-11T04:15:36;18.60;99.90
63802;DHT22;49949;43.060;25.624;2022-12-11T04:18:02;18.60;99.90
63802;DHT22;49949;43.060;25.624;2022-12-11T04:21:00;18.50;99.90
63802;DHT22;49949;43.060;25.624;2022-12-11T04:23:44;18.50;99.90
63802;DHT22;49949;43.060;25.624;2022-12-11T04:26:28;18.50;99.90
63802;DHT22;49949;43.060;25.624;2022-12-11T04:28:53;18.50;99.90
63802;DHT22;49949;43.060;25.624;2022-12-11T04:31:21;18.40;99.90
63802;DHT22;49949;43.060;25.624;2022-12-11T04:33:47;18.50;99.90
63802;DHT22;49949;43.060;25.624;2022-12-11T04:36:13;18.40;99.90
63802;DHT22;49949;43.060;25.624;2022-12-11T04:38:39;18.40;99.90
63802;DHT22;49949;43.060;25.624;2022-12-11T04:41:10;18.50;99.90
63802;DHT22;49949;43.060;25.624;2022-12-11T04:43:36;18.50;99.90
63802;DHT22;49949;43.060;25.624;2022-12-11T04:46:13;18.50;99.90
63802;DHT22;49949;43.060;25.624;2022-12-11T04:48:39;18.50;99.90
63802;DHT22;49949;43.060;25.624;2022-12-11T04:51:06;18.50;99.90
63802;DHT22;49949;43.060;25.624;2022-12-11T04:53:32;18.40;99.90
63802;DHT22;49949;43.060;25.624;2022-12-11T04:55:58;18.40;99.90
63802;DHT22;49949;43.060;25.624;2022-12-11T04:58:25;18.50;99.90
63802;DHT22;49949;43.060;25.624;2022-12-11T05:00:51;18.50;99.90
63802;DHT22;49949;43.060;25.624;2022-12-11T05:03:17;18.50;99.90
63802;DHT22;49949;43.060;25.624;2022-12-11T05:05:53;18.50;99.90
63802;DHT22;49949;43.060;25.624;2022-12-11T05:08:19;18.60;99.90
63802;DHT22;49949;43.060;25.624;2022-12-11T05:10:55;18.60;99.90
63802;DHT22;49949;43.060;25.624;2022-12-11T05:13:21;18.60;99.90
63802;DHT22;49949;43.060;25.624;2022-12-11T05:15:47;18.50;99.90
63802;DHT22;49949;43.060;25.624;2022-12-11T05:18:13;18.60;99.90
63802;DHT22;49949;43.060;25.624;2022-12-11T05:20:38;18.50;99.90
63802;DHT22;49949;43.060;25.624;2022-12-11T05:23:04;18.50;99.90
63802;DHT22;49949;43.060;25.624;2022-12-11T05:25:30;18.50;99.90
63802;DHT22;49949;43.060;25.624;2022-12-11T05:27:55;18.50;99.90
63802;DHT22;49949;43.060;25.624;2022-12-11T05:30:21;18.40;99.90
63802;DHT22;49949;43.060;25.624;2022-12-11T05:32:47;18.40;99.90
63802;DHT22;49949;43.060;25.624;2022-12-11T05:35:13;18.40;99.90
63802;DHT22;49949;43.060;25.624;2022-12-11T05:37:38;18.40;99.90
63802;DHT22;49949;43.060;25.624;2022-12-11T05:40:04;18.40;99.90
63802;DHT22;49949;43.060;25.624;2022-12-11T05:42:33;18.40;99.90
63802;DHT22;49949;43.060;25.624;2022-12-11T05:44:59;18.40;99.90
63802;DHT22;49949;43.060;25.624;2022-12-11T05:47:25;18.30;99.90
63802;DHT22;49949;43.060;25.624;2022-12-11T05:49:51;18.30;99.90
63802;DHT22;49949;43.060;25.624;2022-12-11T05:52:16;18.20;99.90
63802;DHT22;49949;43.060;25.624;2022-12-11T05:54:42;18.20;99.90
63802;DHT22;49949;43.060;25.624;2022-12-11T05:57:08;18.20;99.90
63802;DHT22;49949;43.060;25.624;2022-12-11T05:59:34;18.30;99.90
63802;DHT22;49949;43.060;25.624;2022-12-11T06:01:59;18.10;99.90
63802;DHT22;49949;43.060;25.624;2022-12-11T06:04:25;18.10;99.90
63802;DHT22;49949;43.060;25.624;2022-12-11T06:06:53;18.10;99.90
63802;DHT22;49949;43.060;25.624;2022-12-11T06:09:19;18.30;99.90
63802;DHT22;49949;43.060;25.624;2022-12-11T06:11:45;18.40;99.90
63802;DHT22;49949;43.060;25.624;2022-12-11T06:14:10;18.40;99.90
63802;DHT22;49949;43.060;25.624;2022-12-11T06:16:36;18.40;99.90
63802;DHT22;49949;43.060;25.624;2022-12-11T06:19:02;18.30;99.90
63802;DHT22;49949;43.060;25.624;2022-12-11T06:21:30;18.30;99.90
63802;DHT22;49949;43.060;25.624;2022-12-11T06:23:57;18.10;99.90
63802;DHT22;49949;43.060;25.624;2022-12-11T06:26:23;18.00;99.90
63802;DHT22;49949;43.060;25.624;2022-12-11T06:28:49;17.80;99.90
63802;DHT22;49949;43.060;25.624;2022-12-11T06:31:16;17.70;99.90
63802;DHT22;49949;43.060;25.624;2022-12-11T06:33:42;17.80;99.90
63802;DHT22;49949;43.060;25.624;2022-12-11T06:36:11;17.90;99.90
63802;DHT22;49949;43.060;25.624;2022-12-11T06:38:38;17.80;99.90
63802;DHT22;49949;43.060;25.624;2022-12-11T06:41:04;17.90;99.90
63802;DHT22;49949;43.060;25.624;2022-12-11T06:43:31;18.00;99.90
63802;DHT22;49949;43.060;25.624;2022-12-11T06:45:57;18.10;99.90
63802;DHT22;49949;43.060;25.624;2022-12-11T06:48:23;18.20;99.90
63802;DHT22;49949;43.060;25.624;2022-12-11T06:50:49;18.20;99.90
63802;DHT22;49949;43.060;25.624;2022-12-11T06:53:15;18.30;99.90
63802;DHT22;49949;43.060;25.624;2022-12-11T06:55:41;18.30;99.90
63802;DHT22;49949;43.060;25.624;2022-12-11T06:58:08;18.20;99.90
63802;DHT22;49949;43.060;25.624;2022-12-11T07:00:35;18.30;99.90
63802;DHT22;49949;43.060;25.624;2022-12-11T07:03:01;18.30;99.90
63802;DHT22;49949;43.060;25.624;2022-12-11T07:05:26;18.40;99.90
63802;DHT22;49949;43.060;25.624;2022-12-11T07:07:53;18.40;99.90
63802;DHT22;49949;43.060;25.624;2022-12-11T07:10:19;18.30;99.90
63802;DHT22;49949;43.060;25.624;2022-12-11T07:12:45;18.30;99.90
63802;DHT22;49949;43.060;25.624;2022-12-11T07:15:11;18.30;99.90
63802;DHT22;49949;43.060;25.624;2022-12-11T07:17:36;18.40;99.90
63802;DHT22;49949;43.060;25.624;2022-12-11T07:20:03;18.50;99.90
63802;DHT22;49949;43.060;25.624;2022-12-11T07:22:29;18.40;99.90
63802;DHT22;49949;43.060;25.624;2022-12-11T07:24:54;18.40;99.90
63802;DHT22;49949;43.060;25.624;2022-12-11T07:27:20;18.30;99.90
63802;DHT22;49949;43.060;25.624;2022-12-11T07:29:46;18.40;99.90
63802;DHT22;49949;43.060;25.624;2022-12-11T07:32:11;18.40;99.90
63802;DHT22;49949;43.060;25.624;2022-12-11T07:34:37;18.50;99.90
63802;DHT22;49949;43.060;25.624;2022-12-11T07:37:03;18.60;99.90
63802;DHT22;49949;43.060;25.624;2022-12-11T07:39:29;18.60;99.90
63802;DHT22;49949;43.060;25.624;2022-12-11T07:41:54;18.60;99.90
63802;DHT22;49949;43.060;25.624;2022-12-11T07:44:20;18.60;99.90
63802;DHT22;49949;43.060;25.624;2022-12-11T07:46:46;18.60;99.90
63802;DHT22;49949;43.060;25.624;2022-12-11T07:49:12;18.70;99.90
63802;DHT22;49949;43.060;25.624;2022-12-11T07:51:37;18.70;99.90
63802;DHT22;49949;43.060;25.624;2022-12-11T07:54:07;18.80;99.90
63802;DHT22;49949;43.060;25.624;2022-12-11T07:56:33;18.80;99.90
63802;DHT22;49949;43.060;25.624;2022-12-11T07:59:00;18.90;99.90
63802;DHT22;49949;43.060;25.624;2022-12-11T08:01:27;19.00;99.90
63802;DHT22;49949;43.060;25.624;2022-12-11T08:03:54;19.00;99.90
63802;DHT22;49949;43.060;25.624;2022-12-11T08:06:28;19.00;99.90
63802;DHT22;49949;43.060;25.624;2022-12-11T08:08:55;19.00;99.90
63802;DHT22;49949;43.060;25.624;2022-12-11T08:11:21;19.00;99.90
63802;DHT22;49949;43.060;25.624;2022-12-11T08:13:47;19.20;99.90
63802;DHT22;49949;43.060;25.624;2022-12-11T08:16:13;19.30;99.90
63802;DHT22;49949;43.060;25.624;2022-12-11T08:18:40;19.40;99.90
63802;DHT22;49949;43.060;25.624;2022-12-11T08:21:16;19.50;99.90
63802;DHT22;49949;43.060;25.624;2022-12-11T08:23:42;19.70;99.90
63802;DHT22;49949;43.060;25.624;2022-12-11T08:26:11;19.80;99.90
63802;DHT22;49949;43.060;25.624;2022-12-11T08:28:37;20.10;99.90
63802;DHT22;49949;43.060;25.624;2022-12-11T08:31:05;20.30;99.90
63802;DHT22;49949;43.060;25.624;2022-12-11T08:33:31;20.40;99.90
63802;DHT22;49949;43.060;25.624;2022-12-11T08:35:57;20.40;99.90
63802;DHT22;49949;43.060;25.624;2022-12-11T08:38:23;20.20;99.90
63802;DHT22;49949;43.060;25.624;2022-12-11T08:40:48;20.20;99.90
63802;DHT22;49949;43.060;25.624;2022-12-11T08:43:14;20.30;99.90
63802;DHT22;49949;43.060;25.624;2022-12-11T08:45:39;20.30;99.90
63802;DHT22;49949;43.060;25.624;2022-12-11T08:48:05;20.40;99.90
63802;DHT22;49949;43.060;25.624;2022-12-11T08:50:31;20.40;99.90
63802;DHT22;49949;43.060;25.624;2022-12-11T08:52:57;20.40;99.90
63802;DHT22;49949;43.060;25.624;2022-12-11T08:55:23;20.80;99.90
63802;DHT22;49949;43.060;25.624;2022-12-11T08:57:48;21.20;99.90
63802;DHT22;49949;43.060;25.624;2022-12-11T09:00:15;21.60;96.80
63802;DHT22;49949;43.060;25.624;2022-12-11T09:02:41;21.80;96.00
63802;DHT22;49949;43.060;25.624;2022-12-11T09:05:07;22.10;96.90
63802;DHT22;49949;43.060;25.624;2022-12-11T09:07:35;22.20;95.40
63802;DHT22;49949;43.060;25.624;2022-12-11T09:10:01;22.10;95.20
63802;DHT22;49949;43.060;25.624;2022-12-11T09:12:27;22.10;96.00
63802;DHT22;49949;43.060;25.624;2022-12-11T09:14:53;22.00;95.30
63802;DHT22;49949;43.060;25.624;2022-12-11T09:17:19;22.10;96.20
63802;DHT22;49949;43.060;25.624;2022-12-11T09:19:45;21.80;96.00
63802;DHT22;49949;43.060;25.624;2022-12-11T09:22:10;21.60;96.50
63802;DHT22;49949;43.060;25.624;2022-12-11T09:24:37;21.70;96.50
63802;DHT22;49949;43.060;25.624;2022-12-11T09:27:04;22.20;94.40
63802;DHT22;49949;43.060;25.624;2022-12-11T09:29:30;22.10;94.20
63802;DHT22;49949;43.060;25.624;2022-12-11T09:31:56;21.60;96.00
63802;DHT22;49949;43.060;25.624;2022-12-11T09:34:22;21.40;97.90
63802;DHT22;49949;43.060;25.624;2022-12-11T09:36:48;21.30;97.50
63802;DHT22;49949;43.060;25.624;2022-12-11T09:39:15;21.40;97.10
63802;DHT22;49949;43.060;25.624;2022-12-11T09:41:54;21.40;98.00
63802;DHT22;49949;43.060;25.624;2022-12-11T09:47:45;21.40;98.30
63802;DHT22;49949;43.060;25.624;2022-12-11T09:50:33;21.40;97.60
63802;DHT22;49949;43.060;25.624;2022-12-11T09:53:13;21.10;99.10
63802;DHT22;49949;43.060;25.624;2022-12-11T09:55:50;21.00;99.20
63802;DHT22;49949;43.060;25.624;2022-12-11T09:58:44;21.00;98.90
63802;DHT22;49949;43.060;25.624;2022-12-11T10:01:19;20.90;99.50
63802;DHT22;49949;43.060;25.624;2022-12-11T10:14:33;20.90;99.50
63802;DHT22;49949;43.060;25.624;2022-12-11T10:17:30;21.00;99.70
63802;DHT22;49949;43.060;25.624;2022-12-11T10:20:25;20.80;99.90
63802;DHT22;49949;43.060;25.624;2022-12-11T10:22:53;20.80;99.40
63802;DHT22;49949;43.060;25.624;2022-12-11T10:27:52;20.40;98.70
63802;DHT22;49949;43.060;25.624;2022-12-11T10:33:00;19.70;99.90
63802;DHT22;49949;43.060;25.624;2022-12-11T10:35:40;19.50;99.90
63802;DHT22;49949;43.060;25.624;2022-12-11T10:38:20;19.10;99.90
63802;DHT22;49949;43.060;25.624;2022-12-11T10:43:41;18.40;99.90
63802;DHT22;49949;43.060;25.624;2022-12-11T10:48:52;17.80;99.90
63802;DHT22;49949;43.060;25.624;2022-12-11T10:51:19;17.50;99.90
63802;DHT22;49949;43.060;25.624;2022-12-11T10:53:50;17.40;99.90
63802;DHT22;49949;43.060;25.624;2022-12-11T10:56:25;17.10;99.90
63802;DHT22;49949;43.060;25.624;2022-12-11T10:58:51;17.00;99.90
63802;DHT22;49949;43.060;25.624;2022-12-11T11:01:22;16.80;99.90
63802;DHT22;49949;43.060;25.624;2022-12-11T11:03:58;16.40;99.90
63802;DHT22;49949;43.060;25.624;2022-12-11T11:06:27;16.10;99.90
63802;DHT22;49949;43.060;25.624;2022-12-11T11:08:58;16.00;99.90
63802;DHT22;49949;43.060;25.624;2022-12-11T11:11:33;15.70;99.90
63802;DHT22;49949;43.060;25.624;2022-12-11T11:14:20;15.50;99.90
63802;DHT22;49949;43.060;25.624;2022-12-11T11:16:49;15.70;99.90
63802;DHT22;49949;43.060;25.624;2022-12-11T11:19:25;15.70;99.90
63802;DHT22;49949;43.060;25.624;2022-12-11T11:21:54;15.70;99.90
63802;DHT22;49949;43.060;25.624;2022-12-11T11:24:32;15.70;99.90
63802;DHT22;49949;43.060;25.624;2022-12-11T11:26:59;15.50;99.90
63802;DHT22;49949;43.060;25.624;2022-12-11T11:29:29;15.40;99.90
63802;DHT22;49949;43.060;25.624;2022-12-11T11:32:00;15.40;99.90
63802;DHT22;49949;43.060;25.624;2022-12-11T11:34:28;15.40;99.90
63802;DHT22;49949;43.060;25.624;2022-12-11T11:36:57;15.20;99.90
63802;DHT22;49949;43.060;25.624;2022-12-11T11:39:26;15.10;99.90
63802;DHT22;49949;43.060;25.624;2022-12-11T11:42:03;15.10;99.90
63802;DHT22;49949;43.060;25.624;2022-12-11T11:44:39;14.90;99.90
63802;DHT22;49949;43.060;25.624;2022-12-11T11:47:16;14.60;99.90
63802;DHT22;49949;43.060;25.624;2022-12-11T11:49:54;14.50;99.90
63802;DHT22;49949;43.060;25.624;2022-12-11T11:52:44;14.30;99.90
63802;DHT22;49949;43.060;25.624;2022-12-11T11:55:23;14.30;99.90
63802;DHT22;49949;43.060;25.624;2022-12-11T11:58:05;14.20;99.90
63802;DHT22;49949;43.060;25.624;2022-12-11T12:00:33;14.10;99.90
63802;DHT22;49949;43.060;25.624;2022-12-11T12:03:00;13.90;99.90
63802;DHT22;49949;43.060;25.624;2022-12-11T12:05:36;13.90;99.90
63802;DHT22;49949;43.060;25.624;2022-12-11T12:11:19;13.70;99.90
63802;DHT22;49949;43.060;25.624;2022-12-11T12:19:45;13.80;99.90
63802;DHT22;49949;43.060;25.624;2022-12-11T12:27:30;13.20;99.90
63802;DHT22;49949;43.060;25.624;2022-12-11T12:33:00;13.10;99.90
63802;DHT22;49949;43.060;25.624;2022-12-11T12:35:35;13.10;99.90
63802;DHT22;49949;43.060;25.624;2022-12-11T12:40:31;12.70;99.90
63802;DHT22;49949;43.060;25.624;2022-12-11T12:48:46;12.40;99.90
63802;DHT22;49949;43.060;25.624;2022-12-11T12:51:15;12.40;99.90
63802;DHT22;49949;43.060;25.624;2022-12-11T12:53:46;12.30;99.90
63802;DHT22;49949;43.060;25.624;2022-12-11T12:56:12;12.10;99.90
63802;DHT22;49949;43.060;25.624;2022-12-11T12:58:44;11.80;99.90
63802;DHT22;49949;43.060;25.624;2022-12-11T13:01:18;11.70;99.90
63802;DHT22;49949;43.060;25.624;2022-12-11T13:04:03;11.60;99.90
63802;DHT22;49949;43.060;25.624;2022-12-11T13:06:33;11.50;99.90
63802;DHT22;49949;43.060;25.624;2022-12-11T13:09:16;11.50;99.90
63802;DHT22;49949;43.060;25.624;2022-12-11T13:11:45;11.50;99.90
63802;DHT22;49949;43.060;25.624;2022-12-11T13:16:44;11.60;99.90
63802;DHT22;49949;43.060;25.624;2022-12-11T13:21:57;11.40;99.90
63802;DHT22;49949;43.060;25.624;2022-12-11T13:24:26;11.30;99.90
63802;DHT22;49949;43.060;25.624;2022-12-11T13:26:52;11.30;99.90
63802;DHT22;49949;43.060;25.624;2022-12-11T13:29:35;11.20;99.90
63802;DHT22;49949;43.060;25.624;2022-12-11T13:32:23;11.20;99.90
63802;DHT22;49949;43.060;25.624;2022-12-11T13:34:55;11.10;99.90
63802;DHT22;49949;43.060;25.624;2022-12-11T13:37:26;11.00;99.90
63802;DHT22;49949;43.060;25.624;2022-12-11T13:39:54;11.00;99.90
63802;DHT22;49949;43.060;25.624;2022-12-11T13:42:43;10.90;99.90
63802;DHT22;49949;43.060;25.624;2022-12-11T13:45:25;10.90;99.90
63802;DHT22;49949;43.060;25.624;2022-12-11T13:47:51;10.80;99.90
63802;DHT22;49949;43.060;25.624;2022-12-11T13:50:24;10.80;99.90
63802;DHT22;49949;43.060;25.624;2022-12-11T13:52:59;10.80;99.90
63802;DHT22;49949;43.060;25.624;2022-12-11T13:55:31;10.70;99.90
63802;DHT22;49949;43.060;25.624;2022-12-11T13:57:58;10.70;99.90
63802;DHT22;49949;43.060;25.624;2022-12-11T14:00:27;10.70;99.90
63802;DHT22;49949;43.060;25.624;2022-12-11T14:02:56;10.70;99.90
63802;DHT22;49949;43.060;25.624;2022-12-11T14:05:23;10.60;99.90
63802;DHT22;49949;43.060;25.624;2022-12-11T14:07:51;10.60;99.90
63802;DHT22;49949;43.060;25.624;2022-12-11T14:10:29;10.50;99.90
63802;DHT22;49949;43.060;25.624;2022-12-11T14:15:21;10.50;99.90
63802;DHT22;49949;43.060;25.624;2022-12-11T14:17:47;10.40;99.90
63802;DHT22;49949;43.060;25.624;2022-12-11T14:20:23;10.40;99.90
63802;DHT22;49949;43.060;25.624;2022-12-11T14:22:50;10.40;99.90
63802;DHT22;49949;43.060;25.624;2022-12-11T14:25:25;10.40;99.90
63802;DHT22;49949;43.060;25.624;2022-12-11T14:27:53;10.40;99.90
63802;DHT22;49949;43.060;25.624;2022-12-11T14:30:25;10.40;99.90
63802;DHT22;49949;43.060;25.624;2022-12-11T14:32:53;10.30;99.90
63802;DHT22;49949;43.060;25.624;2022-12-11T14:37:52;9.80;99.90
63802;DHT22;49949;43.060;25.624;2022-12-11T14:40:23;9.80;99.90
63802;DHT22;49949;43.060;25.624;2022-12-11T14:42:58;9.70;99.90
63802;DHT22;49949;43.060;25.624;2022-12-11T14:45:33;9.50;99.90
63802;DHT22;49949;43.060;25.624;2022-12-11T14:48:06;9.30;99.90
63802;DHT22;49949;43.060;25.624;2022-12-11T14:53:01;9.10;99.90
63802;DHT22;49949;43.060;25.624;2022-12-11T14:55:33;9.00;99.90
63802;DHT22;49949;43.060;25.624;2022-12-11T14:58:05;9.00;99.90
63802;DHT22;49949;43.060;25.624;2022-12-11T15:00:36;9.00;99.90
63802;DHT22;49949;43.060;25.624;2022-12-11T15:05:56;8.90;99.90
63802;DHT22;49949;43.060;25.624;2022-12-11T15:08:34;8.70;99.90
63802;DHT22;49949;43.060;25.624;2022-12-11T15:13:30;8.60;99.90
63802;DHT22;49949;43.060;25.624;2022-12-11T15:15:57;8.60;99.90
63802;DHT22;49949;43.060;25.624;2022-12-11T15:18:31;8.50;99.90
63802;DHT22;49949;43.060;25.624;2022-12-11T15:21:03;8.50;99.90
63802;DHT22;49949;43.060;25.624;2022-12-11T15:23:33;8.50;99.90
63802;DHT22;49949;43.060;25.624;2022-12-11T15:26:02;8.40;99.90
63802;DHT22;49949;43.060;25.624;2022-12-11T15:28:38;8.40;99.90
63802;DHT22;49949;43.060;25.624;2022-12-11T15:33:50;8.30;99.90
63802;DHT22;49949;43.060;25.624;2022-12-11T15:36:34;8.30;99.90
63802;DHT22;49949;43.060;25.624;2022-12-11T15:39:00;8.20;99.90
63802;DHT22;49949;43.060;25.624;2022-12-11T15:41:27;8.10;99.90
63802;DHT22;49949;43.060;25.624;2022-12-11T15:44:01;8.10;99.90
63802;DHT22;49949;43.060;25.624;2022-12-11T15:46:28;8.00;99.90
63802;DHT22;49949;43.060;25.624;2022-12-11T15:48:55;7.90;99.90
63802;DHT22;49949;43.060;25.624;2022-12-11T15:51:22;7.80;99.90
63802;DHT22;49949;43.060;25.624;2022-12-11T15:53:48;7.70;99.90
63802;DHT22;49949;43.060;25.624;2022-12-11T15:56:15;7.70;99.90
63802;DHT22;49949;43.060;25.624;2022-12-11T15:58:42;7.70;99.90
63802;DHT22;49949;43.060;25.624;2022-12-11T16:01:09;7.70;99.90
63802;DHT22;49949;43.060;25.624;2022-12-11T16:03:34;7.60;99.90
63802;DHT22;49949;43.060;25.624;2022-12-11T16:06:00;7.70;99.90
63802;DHT22;49949;43.060;25.624;2022-12-11T16:08:26;7.70;99.90
63802;DHT22;49949;43.060;25.624;2022-12-11T16:10:53;7.70;99.90
63802;DHT22;49949;43.060;25.624;2022-12-11T16:13:19;7.60;99.90
63802;DHT22;49949;43.060;25.624;2022-12-11T16:15:47;7.60;99.90
63802;DHT22;49949;43.060;25.624;2022-12-11T16:18:15;7.60;99.90
63802;DHT22;49949;43.060;25.624;2022-12-11T16:20:43;7.60;99.90
63802;DHT22;49949;43.060;25.624;2022-12-11T16:23:09;7.70;99.90
63802;DHT22;49949;43.060;25.624;2022-12-11T16:25:37;7.70;99.90
63802;DHT22;49949;43.060;25.624;2022-12-11T16:28:03;7.60;99.90
63802;DHT22;49949;43.060;25.624;2022-12-11T16:30:29;7.60;99.90
63802;DHT22;49949;43.060;25.624;2022-12-11T16:32:55;7.60;99.90
63802;DHT22;49949;43.060;25.624;2022-12-11T16:35:22;7.60;99.90
63802;DHT22;49949;43.060;25.624;2022-12-11T16:37:49;7.50;99.90
63802;DHT22;49949;43.060;25.624;2022-12-11T16:40:15;7.50;99.90
63802;DHT22;49949;43.060;25.624;2022-12-11T16:42:41;7.50;99.90
63802;DHT22;49949;43.060;25.624;2022-12-11T16:45:11;7.50;99.90
63802;DHT22;49949;43.060;25.624;2022-12-11T16:47:37;7.50;99.90
63802;DHT22;49949;43.060;25.624;2022-12-11T16:50:03;7.60;99.90
63802;DHT22;49949;43.060;25.624;2022-12-11T16:52:31;7.60;99.90
63802;DHT22;49949;43.060;25.624;2022-12-11T16:54:57;7.60;99.90